Time;durP1;ratioP1;P1;durP2;ratioP2;P2;SDS_P1;SDS_P2;PMS_P1;PMS_P2;Temp;Humidity;BMP_temperature;BMP_pressure;BME280_temperature;BME280_humidity;BME280_pressure;Samples;Min_cycle;Max_cycle;Signal;HPM_P1;HPM_P2
2022/11/29 00:01:38;;;;;;;16.03;12.37;;;8.60;84.90;;;11.55;60.12;101363.25;5053126;28;20233;-54
2022/11/29 00:04:06;;;;;;;13.13;10.80;;;8.70;84.50;;;11.56;60.37;101364.88;5054722;28;20728;-57
2022/11/29 00:06:34;;;;;;;12.37;11.07;;;8.60;84.50;;;11.60;60.14;101354.84;5069299;28;20646;-57
2022/11/29 00:09:06;;;;;;;14.50;10.90;;;8.70;84.70;;;11.61;59.93;101362.59;5077708;28;20194;-58
2022/11/29 00:14:24;;;;;;;13.57;11.80;;;8.60;84.20;;;11.41;60.20;101351.53;5097833;28;20195;-57
2022/11/29 00:16:55;;;;;;;15.77;12.87;;;8.60;84.20;;;11.32;60.59;101363.06;5097650;28;20596;-55
2022/11/29 00:19:22;;;;;;;16.37;12.20;;;8.60;83.90;;;11.22;60.53;101365.03;5090430;28;20680;-54
2022/11/29 00:21:49;;;;;;;13.77;11.27;;;8.60;83.90;;;11.21;60.48;101370.47;5077729;28;20607;-55
2022/11/29 00:24:16;;;;;;;15.70;10.60;;;8.50;84.10;;;11.24;60.62;101367.53;5077853;28;20197;-56
2022/11/29 00:26:43;;;;;;;16.33;10.87;;;8.50;84.30;;;11.31;60.60;101365.88;5077284;28;20189;-55
2022/11/29 00:29:11;;;;;;;12.40;11.03;;;8.50;84.60;;;11.36;60.32;101366.22;5077450;28;20239;-55
2022/11/29 00:31:40;;;;;;;14.17;10.40;;;8.50;84.70;;;11.43;60.47;101370.66;5076578;28;20271;-55
2022/11/29 00:34:10;;;;;;;14.60;11.27;;;8.50;84.90;;;11.50;60.32;101365.56;5077170;28;20250;-55
2022/11/29 00:36:37;;;;;;;14.10;12.60;;;8.50;85.00;;;11.54;59.76;101366.88;5076864;28;20998;-52
2022/11/29 00:39:04;;;;;;;16.17;12.63;;;8.60;84.90;;;11.39;60.16;101368.50;5077328;28;20185;-57
2022/11/29 00:41:32;;;;;;;17.57;12.43;;;8.60;84.20;;;11.23;60.28;101371.13;5075384;28;20221;-56
2022/11/29 00:43:59;;;;;;;16.33;11.90;;;8.60;84.00;;;11.21;60.32;101375.75;5090006;28;20681;-54
2022/11/29 00:46:27;;;;;;;16.67;11.40;;;8.50;84.10;;;11.23;60.63;101374.59;5088067;28;20207;-57
2022/11/29 00:48:56;;;;;;;18.17;12.83;;;8.50;84.30;;;11.25;60.45;101371.78;5076749;28;20704;-57
2022/11/29 00:51:23;;;;;;;14.90;11.83;;;8.50;84.40;;;11.24;60.86;101370.16;5076278;28;20251;-58
2022/11/29 00:53:50;;;;;;;17.03;12.90;;;8.50;84.30;;;11.17;60.52;101374.44;5076674;28;20193;-57
2022/11/29 00:56:17;;;;;;;15.67;12.20;;;8.40;84.30;;;11.12;61.15;101371.47;5076821;28;20197;-55
2022/11/29 00:58:44;;;;;;;14.27;12.00;;;8.50;84.40;;;11.07;61.27;101364.03;5077325;28;20193;-57
2022/11/29 01:01:11;;;;;;;17.73;12.67;;;8.40;84.50;;;11.01;61.31;101369.94;5077570;28;20208;-55
2022/11/29 01:03:38;;;;;;;15.30;12.83;;;8.40;84.60;;;10.98;61.97;101369.47;5076902;28;20189;-55
2022/11/29 01:06:10;;;;;;;18.67;13.17;;;8.30;84.70;;;10.90;62.07;101370.25;5076713;28;20209;-57
2022/11/29 01:08:38;;;;;;;17.07;12.40;;;8.30;85.00;;;10.92;61.87;101370.09;5076505;28;20208;-57
2022/11/29 01:11:11;;;;;;;15.97;12.57;;;8.30;85.10;;;10.96;61.44;101371.44;5075193;28;20217;-56
2022/11/29 01:13:40;;;;;;;19.57;12.87;;;8.30;85.30;;;11.01;61.89;101371.75;5095633;28;20660;-55
2022/11/29 01:16:08;;;;;;;14.30;12.03;;;8.30;85.50;;;11.01;61.96;101369.13;5095300;28;20706;-57
2022/11/29 01:18:36;;;;;;;16.53;13.63;;;8.30;85.50;;;11.03;61.48;101367.16;5095499;28;20203;-57
2022/11/29 01:21:08;;;;;;;15.60;12.20;;;8.30;85.70;;;11.01;61.36;101375.22;5076015;28;20666;-54
2022/11/29 01:23:37;;;;;;;14.63;12.07;;;8.30;85.60;;;11.06;61.47;101369.47;5076398;28;20197;-54
2022/11/29 01:26:08;;;;;;;15.47;11.90;;;8.30;85.70;;;11.18;61.58;101373.44;5076253;28;20243;-57
2022/11/29 01:28:36;;;;;;;15.80;11.80;;;8.40;86.20;;;11.27;61.65;101380.34;5076005;28;20197;-55
2022/11/29 01:31:07;;;;;;;20.20;14.03;;;8.40;86.10;;;11.29;60.93;101381.03;5075729;28;20274;-57
2022/11/29 01:33:36;;;;;;;22.20;14.87;;;8.40;85.50;;;11.27;61.00;101383.00;5076239;28;20236;-55
2022/11/29 01:36:05;;;;;;;19.13;13.00;;;8.40;84.90;;;11.18;60.57;101392.69;5076026;28;20665;-55
2022/11/29 01:38:34;;;;;;;19.27;13.83;;;8.50;84.80;;;11.19;60.97;101396.16;5075745;28;20189;-55
2022/11/29 01:41:05;;;;;;;18.40;12.30;;;8.40;84.80;;;11.23;61.07;101392.22;5075663;28;20247;-52
2022/11/29 01:43:52;;;;;;;16.87;12.10;;;8.40;85.10;;;11.29;60.98;101396.84;5075917;28;20658;-54
2022/11/29 01:46:19;;;;;;;17.13;13.20;;;8.50;85.20;;;11.32;60.81;101388.59;5077202;28;20189;-55
2022/11/29 01:48:49;;;;;;;17.90;13.07;;;8.50;85.30;;;11.35;61.21;101394.38;5076275;28;20193;-56
2022/11/29 01:51:16;;;;;;;16.90;12.90;;;8.50;85.30;;;11.37;60.45;101399.47;5076452;28;20221;-54
2022/11/29 01:53:45;;;;;;;17.57;13.30;;;8.50;85.20;;;11.36;61.10;101395.22;5077240;28;20193;-56
2022/11/29 01:56:14;;;;;;;17.37;13.10;;;8.50;85.00;;;11.32;60.69;101399.13;5076931;28;20216;-56
2022/11/29 01:58:44;;;;;;;20.23;13.53;;;8.50;84.80;;;11.26;61.00;101394.53;5076752;28;20277;-55
2022/11/29 02:01:13;;;;;;;18.10;13.87;;;8.50;84.60;;;11.22;60.68;101395.84;5077195;28;20588;-54
2022/11/29 02:03:40;;;;;;;14.77;12.00;;;8.50;84.60;;;11.23;60.84;101393.03;5076819;28;20193;-56
2022/11/29 02:06:07;;;;;;;15.83;12.47;;;8.50;84.80;;;11.29;61.16;101394.22;5076301;28;20197;-54
2022/11/29 02:08:39;;;;;;;17.20;12.37;;;8.50;85.10;;;11.30;60.53;101401.13;5076254;28;20696;-56
2022/11/29 02:11:48;;;;;;;15.73;12.53;;;8.50;85.00;;;11.27;61.21;101393.53;5074195;28;20216;-57
2022/11/29 02:14:38;;;;;;;17.47;12.77;;;8.50;85.00;;;11.29;60.83;101396.84;5054989;28;20200;-57
2022/11/29 02:17:19;;;;;;;18.53;12.00;;;8.50;85.00;;;11.34;60.72;101392.72;5055219;28;20583;-56
2022/11/29 02:20:24;;;;;;;15.63;12.10;;;8.60;85.10;;;11.34;60.50;101399.78;5065801;28;20193;-57
2022/11/29 02:23:06;;;;;;;18.13;13.20;;;8.50;85.00;;;11.30;60.73;101395.84;5075179;28;20208;-55
2022/11/29 02:26:01;;;;;;;16.53;12.77;;;8.60;84.70;;;11.17;60.66;101395.50;5075118;28;20206;-54
2022/11/29 02:29:16;;;;;;;16.77;12.63;;;8.50;84.40;;;11.11;61.08;101406.69;5074689;28;20257;-56
2022/11/29 02:32:30;;;;;;;16.57;12.57;;;8.50;84.60;;;11.08;60.85;101393.84;5072523;28;20290;-56
2022/11/29 02:35:23;;;;;;;15.30;12.60;;;8.50;84.60;;;11.09;61.55;101398.94;5073704;28;20250;-54
2022/11/29 02:38:22;;;;;;;16.80;11.93;;;8.50;84.70;;;11.17;61.21;101401.59;5076407;28;20204;-56
2022/11/29 02:41:21;;;;;;;17.30;13.57;;;8.40;85.40;;;11.22;60.65;101411.66;5055670;28;20194;-57
2022/11/29 02:44:30;;;;;;;15.67;12.73;;;8.50;85.10;;;11.19;60.72;101407.53;5077104;28;20192;-56
2022/11/29 02:47:14;;;;;;;20.17;13.77;;;8.50;85.00;;;11.17;61.38;101411.31;5081885;28;20200;-55
2022/11/29 02:50:08;;;;;;;22.00;14.00;;;8.50;84.90;;;11.12;61.23;101408.34;5075133;28;20239;-56
2022/11/29 02:52:48;;;;;;;17.87;13.07;;;8.50;85.00;;;11.11;61.57;101414.59;5066555;28;20245;-58
2022/11/29 02:55:23;;;;;;;19.07;13.77;;;8.50;85.10;;;11.12;61.15;101418.88;5074631;28;20186;-54
2022/11/29 02:58:00;;;;;;;17.23;12.70;;;8.40;85.00;;;11.09;61.21;101419.19;5074538;28;20246;-53
2022/11/29 03:00:27;;;;;;;15.60;13.30;;;8.40;85.10;;;11.06;61.25;101422.97;5074534;28;20189;-56
2022/11/29 03:03:04;;;;;;;20.27;13.00;;;8.40;85.30;;;11.05;61.27;101423.16;5074293;28;20262;-56
2022/11/29 03:05:47;;;;;;;17.90;12.90;;;8.40;86.20;;;11.03;61.50;101417.22;5074302;28;20183;-57
2022/11/29 03:08:31;;;;;;;16.57;13.17;;;8.40;85.40;;;10.97;61.66;101423.94;5074367;28;20188;-56
2022/11/29 03:11:11;;;;;;;19.13;13.43;;;8.30;85.50;;;10.92;61.75;101433.28;5073413;28;20213;-54
2022/11/29 03:13:54;;;;;;;17.77;13.67;;;8.30;85.40;;;10.87;61.85;101431.97;5074389;28;20193;-57
2022/11/29 03:16:35;;;;;;;17.10;13.53;;;8.30;85.60;;;10.88;61.94;101441.53;5074587;28;20203;-55
2022/11/29 03:19:33;;;;;;;17.80;12.93;;;8.30;85.80;;;10.82;62.30;101436.88;5073913;28;20191;-57
2022/11/29 03:22:10;;;;;;;17.73;13.70;;;8.30;85.90;;;10.76;62.12;101440.16;5073911;28;20259;-55
2022/11/29 03:24:53;;;;;;;19.70;14.40;;;8.30;85.90;;;10.69;62.70;101436.53;5073470;28;20659;-55
2022/11/29 03:27:29;;;;;;;17.57;13.07;;;8.20;86.10;;;10.65;62.97;101440.44;5073880;28;20258;-56
2022/11/29 03:30:03;;;;;;;18.60;14.20;;;8.20;86.20;;;10.67;62.73;101441.09;5073271;28;20626;-54
2022/11/29 03:32:47;;;;;;;19.90;13.77;;;8.20;86.50;;;10.70;63.08;101448.69;5073241;28;20220;-58
2022/11/29 03:35:24;;;;;;;18.47;13.60;;;8.20;86.60;;;10.77;62.66;101452.34;5073825;28;20197;-57
2022/11/29 03:38:02;;;;;;;17.77;13.37;;;8.10;87.50;;;10.78;63.26;101454.00;5074006;28;20576;-57
2022/11/29 03:40:48;;;;;;;17.67;14.77;;;8.20;86.90;;;10.76;62.73;101444.59;5072888;28;20238;-57
2022/11/29 03:43:23;;;;;;;17.03;13.23;;;8.20;86.90;;;10.76;62.72;101450.69;5080789;28;20329;-57
2022/11/29 03:45:59;;;;;;;16.67;12.90;;;8.20;86.80;;;10.81;62.88;101448.41;5094294;28;20213;-57
2022/11/29 03:48:34;;;;;;;19.43;13.00;;;8.10;86.90;;;10.85;62.93;101452.38;5078119;28;20189;-59
2022/11/29 03:51:10;;;;;;;16.10;12.77;;;8.20;87.10;;;10.94;63.25;101450.59;5073109;28;20188;-57
2022/11/29 03:53:47;;;;;;;15.57;11.67;;;8.20;87.20;;;10.97;62.34;101458.19;5073809;28;20246;-57
2022/11/29 03:56:30;;;;;;;18.33;12.00;;;8.20;87.20;;;11.02;62.36;101452.44;5073590;28;20234;-54
2022/11/29 03:59:13;;;;;;;14.63;11.87;;;8.30;87.40;;;11.01;62.37;101453.41;5073612;28;20545;-57
2022/11/29 04:02:33;;;;;;;15.97;12.50;;;8.20;87.00;;;10.97;62.38;101452.06;5072608;28;20614;-57
2022/11/29 04:05:46;;;;;;;15.90;12.33;;;8.30;87.10;;;10.98;62.69;101459.00;5073254;28;20619;-57
2022/11/29 04:09:15;;;;;;;15.57;12.17;;;8.30;86.80;;;11.01;62.28;101461.31;5072703;28;20645;-54
2022/11/29 04:12:13;;;;;;;17.87;12.80;;;8.30;87.00;;;11.11;62.71;101464.63;5072623;28;20622;-55
2022/11/29 04:15:15;;;;;;;14.20;11.83;;;8.30;87.10;;;11.19;62.63;101470.78;5073495;28;20194;-56
2022/11/29 04:18:34;;;;;;;18.13;12.87;;;8.40;87.10;;;11.26;62.15;101468.31;5073393;28;20661;-62
2022/11/29 04:21:32;;;;;;;15.10;12.10;;;8.40;87.10;;;11.34;61.92;101460.41;5052966;28;20189;-57
2022/11/29 04:24:54;;;;;;;16.43;12.43;;;8.50;87.20;;;11.36;61.35;101461.91;5049071;28;20209;-56
2022/11/29 04:27:40;;;;;;;18.87;14.43;;;8.50;86.70;;;11.36;60.87;101469.81;4991616;28;20254;-56
2022/11/29 04:30:17;;;;;;;15.43;13.10;;;8.60;85.90;;;11.34;61.34;101471.78;5051847;28;20190;-57
2022/11/29 04:33:47;;;;;;;13.70;11.27;;;8.60;85.60;;;11.31;61.58;101476.56;5088186;28;20227;-58
2022/11/29 04:36:45;;;;;;;14.33;11.77;;;8.60;86.00;;;11.33;61.78;101483.31;5060966;28;20643;-56
2022/11/29 04:39:46;;;;;;;15.77;11.97;;;8.60;86.00;;;11.36;61.36;101480.34;5075255;28;20232;-56
2022/11/29 04:42:59;;;;;;;16.47;13.03;;;8.60;86.10;;;11.26;61.35;101484.97;5075522;28;20209;-56
2022/11/29 04:46:19;;;;;;;15.17;12.20;;;8.60;85.30;;;11.19;61.74;101483.13;5052293;28;20198;-57
2022/11/29 04:49:09;;;;;;;16.10;13.03;;;8.60;85.30;;;11.13;61.32;101483.75;5055921;28;20244;-56
2022/11/29 04:52:09;;;;;;;14.57;12.23;;;8.50;85.20;;;11.07;61.49;101479.13;5075465;28;20278;-58
2022/11/29 04:54:46;;;;;;;16.33;11.63;;;8.50;85.50;;;11.06;61.86;101482.72;5076867;28;20662;-57
2022/11/29 04:57:31;;;;;;;15.87;13.00;;;8.40;85.50;;;11.04;62.08;101489.97;5076841;28;20239;-56
2022/11/29 05:00:08;;;;;;;16.07;12.23;;;8.40;85.70;;;11.09;61.87;101488.50;5076545;28;20181;-54
2022/11/29 05:02:49;;;;;;;16.53;12.80;;;8.40;86.10;;;11.18;62.03;101497.25;5076149;28;20231;-57
2022/11/29 05:05:32;;;;;;;12.53;11.23;;;8.40;86.50;;;11.28;62.02;101505.88;5076922;28;20189;-54
2022/11/29 05:08:22;;;;;;;16.07;11.87;;;8.40;86.50;;;11.35;61.48;101505.06;5077316;28;20193;-56
2022/11/29 05:11:02;;;;;;;16.57;12.03;;;8.50;86.80;;;11.43;61.77;101506.91;5076081;28;20182;-57
2022/11/29 05:13:44;;;;;;;15.33;12.07;;;8.50;86.80;;;11.50;61.95;101508.72;5076743;28;20212;-55
2022/11/29 05:16:31;;;;;;;14.97;11.93;;;8.60;86.90;;;11.57;61.45;101508.91;5076578;28;20185;-57
2022/11/29 05:19:33;;;;;;;19.23;14.07;;;8.60;86.70;;;11.62;60.88;101511.91;5075851;28;20238;-57
2022/11/29 05:22:22;;;;;;;21.43;14.90;;;8.60;86.50;;;11.60;61.04;101513.84;5063157;28;20311;-57
2022/11/29 05:25:01;;;;;;;19.83;15.70;;;8.70;86.20;;;11.58;61.00;101514.00;5076232;28;20554;-56
2022/11/29 05:27:45;;;;;;;18.97;14.67;;;8.70;85.80;;;11.50;60.84;101518.47;5075862;28;20254;-56
2022/11/29 05:30:17;;;;;;;18.20;13.57;;;8.70;85.50;;;11.49;60.91;101511.53;5075999;28;20189;-56
2022/11/29 05:32:57;;;;;;;19.00;15.33;;;8.70;85.50;;;11.47;61.18;101518.78;5076561;28;20225;-53
2022/11/29 05:35:52;;;;;;;16.90;14.60;;;8.70;85.60;;;11.45;61.16;101520.75;5075913;28;20197;-57
2022/11/29 05:38:42;;;;;;;21.17;14.97;;;8.70;85.80;;;11.49;61.03;101527.34;5075599;28;20249;-55
2022/11/29 05:41:31;;;;;;;18.53;14.23;;;8.60;85.90;;;11.51;60.91;101531.47;5075608;28;20180;-56
2022/11/29 05:44:10;;;;;;;20.07;15.43;;;8.70;85.90;;;11.50;61.17;101539.53;5088270;28;20197;-61
2022/11/29 05:46:51;;;;;;;21.23;14.73;;;8.70;85.60;;;11.45;61.16;101537.41;5095983;28;20575;-56
2022/11/29 05:49:33;;;;;;;21.10;16.90;;;8.70;85.60;;;11.39;61.14;101537.19;5075684;28;20189;-56
2022/11/29 05:52:20;;;;;;;21.23;16.07;;;8.60;85.30;;;11.25;60.93;101537.78;5075188;28;20213;-54
2022/11/29 05:55:08;;;;;;;22.03;16.57;;;8.60;85.30;;;11.19;61.71;101543.72;5074574;28;20247;-57
2022/11/29 05:57:45;;;;;;;21.27;15.80;;;8.60;85.30;;;11.23;61.27;101542.41;5076359;28;20177;-57
2022/11/29 06:00:16;;;;;;;20.77;16.93;;;8.60;85.70;;;11.26;61.49;101547.38;5076073;28;20265;-55
2022/11/29 06:02:57;;;;;;;20.90;16.80;;;8.50;85.80;;;11.26;61.54;101553.47;5077607;28;20205;-56
2022/11/29 06:05:36;;;;;;;24.90;18.40;;;8.60;86.00;;;11.16;61.94;101563.31;5075644;28;20177;-55
2022/11/29 06:08:12;;;;;;;25.93;17.70;;;8.50;85.60;;;11.08;61.57;101560.63;5076085;28;20610;-56
2022/11/29 06:10:55;;;;;;;27.17;17.87;;;8.50;85.50;;;11.01;61.99;101569.31;5076330;28;20527;-55
2022/11/29 06:13:41;;;;;;;26.70;17.37;;;8.40;86.10;;;10.94;61.83;101566.47;5077870;28;20239;-56
2022/11/29 06:16:39;;;;;;;25.33;18.50;;;8.40;85.40;;;10.85;62.36;101570.03;5075782;28;20189;-56
2022/11/29 06:19:48;;;;;;;26.67;17.57;;;8.40;85.60;;;10.70;62.84;101572.41;5076603;28;20201;-55
2022/11/29 06:22:58;;;;;;;22.80;16.57;;;8.30;85.70;;;10.62;62.73;101577.66;5075809;28;20232;-56
2022/11/29 06:25:48;;;;;;;28.07;18.47;;;8.20;85.70;;;10.65;62.64;101574.69;5055426;28;20240;-57
2022/11/29 06:28:43;;;;;;;25.43;17.30;;;8.20;86.10;;;10.61;62.73;101583.03;5064523;28;20202;-57
2022/11/29 06:31:19;;;;;;;22.37;16.13;;;8.20;86.20;;;10.60;63.38;101576.94;5073002;28;20197;-56
2022/11/29 06:33:58;;;;;;;25.63;17.17;;;8.10;86.40;;;10.61;63.24;101575.97;5055064;28;20227;-57
2022/11/29 06:36:32;;;;;;;24.77;16.90;;;8.10;86.70;;;10.58;63.75;101584.19;5055909;28;20247;-56
2022/11/29 06:39:01;;;;;;;25.13;16.27;;;8.10;86.90;;;10.63;63.56;101581.91;5054571;28;20205;-57
2022/11/29 06:41:29;;;;;;;27.20;15.87;;;8.10;87.10;;;10.71;63.44;101579.34;5054990;28;20263;-55
2022/11/29 06:43:57;;;;;;;19.67;14.83;;;8.10;87.10;;;10.82;62.93;101591.41;5079590;28;20246;-55
2022/11/29 06:46:44;;;;;;;23.10;15.57;;;8.10;87.20;;;10.91;63.01;101590.47;5095419;28;20196;-56
2022/11/29 06:49:20;;;;;;;23.67;16.93;;;8.20;87.80;;;10.92;62.86;101592.16;5055225;28;20239;-58
2022/11/29 06:52:04;;;;;;;22.73;17.17;;;8.20;87.40;;;10.92;63.03;101596.56;5054827;28;20260;-57
2022/11/29 06:54:53;;;;;;;23.40;16.63;;;8.20;87.10;;;10.86;62.55;101596.22;5055802;28;20205;-56
2022/11/29 06:57:28;;;;;;;21.50;16.30;;;8.20;86.80;;;10.87;62.57;101599.69;5053404;28;20263;-56
2022/11/29 07:00:08;;;;;;;23.93;16.27;;;8.20;86.90;;;10.86;62.59;101603.31;5054456;28;20239;-58
2022/11/29 07:02:56;;;;;;;19.60;15.80;;;8.20;86.80;;;10.83;63.08;101614.16;5056053;28;20210;-56
2022/11/29 07:05:28;;;;;;;21.17;15.60;;;8.20;87.60;;;10.87;62.97;101610.22;5056582;28;20255;-56
2022/11/29 07:08:02;;;;;;;21.20;15.37;;;8.20;87.10;;;10.91;63.29;101616.00;5074288;28;20208;-57
2022/11/29 07:10:36;;;;;;;20.50;16.27;;;8.20;87.30;;;10.92;63.35;101617.66;5070929;28;20671;-56
2022/11/29 07:13:04;;;;;;;19.53;15.80;;;8.20;87.30;;;10.97;63.41;101615.38;5082105;28;20212;-58
2022/11/29 07:15:32;;;;;;;20.47;15.67;;;8.20;87.40;;;10.89;62.82;101624.03;5092627;28;20192;-58
2022/11/29 07:18:16;;;;;;;21.80;15.77;;;8.30;87.30;;;10.83;63.19;101617.63;5095941;28;20197;-55
2022/11/29 07:21:03;;;;;;;20.57;15.10;;;8.30;87.30;;;10.82;63.58;101617.75;5071833;28;20217;-55
2022/11/29 07:23:37;;;;;;;23.70;17.93;;;8.20;87.20;;;10.83;63.34;101617.63;5074525;28;20196;-56
2022/11/29 07:26:20;;;;;;;19.57;14.27;;;8.20;87.40;;;10.85;63.58;101628.81;5074453;28;20255;-56
2022/11/29 07:29:03;;;;;;;19.90;15.27;;;8.20;87.40;;;10.91;63.17;101632.63;5072518;28;20205;-58
2022/11/29 07:31:53;;;;;;;18.20;13.67;;;8.20;87.60;;;10.98;63.23;101627.59;5077732;28;20241;-56
2022/11/29 07:34:33;;;;;;;18.37;15.30;;;8.30;87.80;;;11.03;62.86;101625.31;5055028;28;20191;-57
2022/11/29 07:37:14;;;;;;;21.83;15.00;;;8.30;87.90;;;11.04;63.06;101633.03;5056477;28;20598;-55
2022/11/29 07:39:55;;;;;;;18.50;14.60;;;8.30;87.70;;;11.02;62.67;101631.53;5054106;28;20208;-55
2022/11/29 07:42:40;;;;;;;19.87;15.73;;;8.30;87.40;;;11.00;62.73;101638.78;5069952;28;20709;-57
2022/11/29 07:45:21;;;;;;;18.50;14.60;;;8.30;87.30;;;10.99;63.45;101642.38;5057568;28;20200;-57
2022/11/29 07:47:49;;;;;;;19.03;15.73;;;8.30;87.20;;;11.01;62.89;101643.88;5072824;28;20268;-57
2022/11/29 07:50:16;;;;;;;19.80;15.83;;;8.30;87.30;;;11.01;63.23;101648.31;5072223;28;20215;-56
2022/11/29 07:52:43;;;;;;;22.10;15.87;;;8.30;87.30;;;10.98;62.71;101649.50;5073025;28;20223;-57
2022/11/29 07:55:12;;;;;;;20.33;16.03;;;8.30;87.20;;;10.94;62.62;101653.38;5073258;28;20210;-56
2022/11/29 07:57:46;;;;;;;20.37;15.80;;;8.30;87.10;;;10.85;63.12;101655.16;5066268;28;20188;-57
2022/11/29 08:00:16;;;;;;;16.50;14.40;;;8.30;86.90;;;10.78;63.64;101648.00;5052161;28;20538;-57
2022/11/29 08:02:44;;;;;;;19.60;15.33;;;8.30;87.00;;;10.76;63.56;101656.06;5052919;28;20205;-58
2022/11/29 08:05:11;;;;;;;17.90;15.27;;;8.20;87.00;;;10.78;63.28;101662.00;5053525;28;20186;-54
2022/11/29 08:07:40;;;;;;;19.53;14.60;;;8.20;87.20;;;10.76;63.70;101661.34;5074226;28;20576;-55
2022/11/29 08:10:11;;;;;;;18.93;15.37;;;8.20;87.30;;;10.79;63.35;101668.91;5073613;28;20223;-57
2022/11/29 08:12:42;;;;;;;19.53;15.60;;;8.20;87.40;;;10.78;63.21;101667.28;5083726;28;20220;-57
2022/11/29 08:15:12;;;;;;;18.83;14.87;;;8.20;87.30;;;10.80;63.47;101665.31;5094089;28;20177;-53
2022/11/29 08:17:39;;;;;;;18.03;14.83;;;8.20;87.40;;;10.82;63.38;101673.88;5075510;28;20246;-56
2022/11/29 08:20:09;;;;;;;18.03;14.43;;;8.20;87.50;;;10.85;63.10;101673.59;5072483;28;20217;-54
2022/11/29 08:22:37;;;;;;;20.00;15.67;;;8.20;87.50;;;10.85;63.62;101672.75;5072023;28;20693;-56
2022/11/29 08:25:06;;;;;;;18.03;15.07;;;8.20;87.60;;;10.85;63.08;101670.94;5074459;28;20286;-58
2022/11/29 08:27:35;;;;;;;17.67;14.30;;;8.20;87.50;;;10.91;63.40;101672.13;5076460;28;20234;-56
2022/11/29 08:30:03;;;;;;;17.97;14.80;;;8.30;87.70;;;10.98;63.10;101669.72;5076235;28;20224;-58
2022/11/29 08:32:34;;;;;;;20.20;15.97;;;8.30;87.80;;;11.02;63.20;101665.78;5079200;28;20213;-59
2022/11/29 08:35:01;;;;;;;22.47;17.10;;;8.30;87.70;;;11.08;62.82;101667.81;5087245;28;20215;-57
2022/11/29 08:37:28;;;;;;;20.97;16.00;;;8.30;87.50;;;11.13;62.47;101676.06;5081516;28;20247;-56
2022/11/29 08:39:57;;;;;;;19.77;14.20;;;8.40;87.40;;;11.14;62.30;101681.19;5077073;28;20201;-57
2022/11/29 08:42:24;;;;;;;17.97;15.37;;;8.40;87.20;;;11.17;62.21;101680.06;5076878;28;20266;-55
2022/11/29 08:44:51;;;;;;;21.37;15.07;;;8.40;87.10;;;11.16;62.54;101683.66;5097255;28;20266;-58
2022/11/29 08:47:36;;;;;;;20.20;15.43;;;8.40;86.60;;;11.13;62.17;101683.97;5091722;28;20204;-54
2022/11/29 08:50:11;;;;;;;20.97;14.47;;;8.40;86.40;;;11.01;62.49;101686.03;5082389;28;20185;-58
2022/11/29 08:55:33;;;;;;;23.67;16.73;;;8.40;86.20;;;11.08;62.14;101691.53;5089721;28;20273;-57
2022/11/29 08:58:03;;;;;;;24.00;16.40;;;8.40;86.40;;;11.09;62.64;101694.00;5081052;28;20185;-55
2022/11/29 09:00:32;;;;;;;20.10;15.60;;;8.40;86.50;;;11.09;62.46;101694.00;5091321;28;20185;-57
2022/11/29 09:05:48;;;;;;;20.97;16.07;;;8.40;86.40;;;11.06;62.33;101698.75;5082809;28;20190;-57
2022/11/29 09:08:15;;;;;;;23.17;18.23;;;8.40;86.40;;;11.01;62.42;101701.84;5093379;28;20201;-55
2022/11/29 09:10:42;;;;;;;22.07;17.80;;;8.40;86.30;;;11.00;62.56;101705.47;5075099;28;20205;-58
2022/11/29 09:13:11;;;;;;;21.83;17.40;;;8.40;86.30;;;11.00;62.69;101709.91;5087868;28;20227;-53
2022/11/29 09:15:39;;;;;;;20.90;15.97;;;8.40;86.40;;;10.95;62.35;101717.44;5083858;28;20205;-55
2022/11/29 09:18:06;;;;;;;21.43;16.17;;;8.40;86.30;;;10.97;62.56;101718.09;5098183;28;20201;-56
2022/11/29 09:20:34;;;;;;;20.30;15.83;;;8.40;86.40;;;10.98;62.47;101711.88;5084367;28;20262;-56
2022/11/29 09:23:03;;;;;;;23.13;17.40;;;8.40;86.50;;;10.98;62.71;101722.41;5089266;28;20267;-57
2022/11/29 09:25:30;;;;;;;18.37;14.90;;;8.40;86.50;;;10.94;62.32;101721.88;5092490;28;20193;-57
2022/11/29 09:28:00;;;;;;;22.53;16.97;;;8.40;86.40;;;10.96;62.69;101734.91;5079827;28;20610;-55
2022/11/29 09:30:30;;;;;;;23.83;17.17;;;8.30;86.40;;;10.93;62.34;101728.13;5093873;28;20189;-55
2022/11/29 09:32:58;;;;;;;27.20;18.50;;;8.30;86.40;;;10.89;62.71;101732.03;5084719;28;20216;-54
2022/11/29 09:35:27;;;;;;;24.93;17.70;;;8.30;86.60;;;10.91;63.22;101731.91;5083559;28;20265;-55
2022/11/29 09:37:54;;;;;;;25.40;18.07;;;8.30;86.70;;;10.86;63.40;101730.53;5088405;28;20285;-55
2022/11/29 09:40:32;;;;;;;21.50;16.57;;;8.30;86.90;;;10.87;63.03;101736.63;5095809;28;20245;-55
2022/11/29 09:43:12;;;;;;;23.70;17.33;;;8.30;87.00;;;10.89;63.30;101735.50;5089650;28;20226;-57
2022/11/29 09:45:45;;;;;;;21.00;16.93;;;8.30;87.20;;;10.88;63.20;101744.41;5076103;28;20181;-57
2022/11/29 09:48:48;;;;;;;21.97;17.23;;;8.30;88.00;;;10.86;63.00;101735.78;5075201;28;20268;-55
2022/11/29 09:51:26;;;;;;;20.57;17.03;;;8.30;87.40;;;10.91;63.38;101742.44;5075735;28;20204;-56
2022/11/29 09:54:16;;;;;;;21.63;16.53;;;8.30;87.50;;;10.93;62.96;101743.09;5076564;28;20201;-56
2022/11/29 09:56:49;;;;;;;22.83;17.23;;;8.40;87.40;;;10.99;63.66;101739.84;5076429;28;20288;-58
2022/11/29 09:59:23;;;;;;;21.83;17.27;;;8.30;87.60;;;11.00;63.24;101746.78;5076424;28;20260;-56
2022/11/29 10:01:59;;;;;;;22.23;17.30;;;8.30;87.40;;;10.93;63.57;101751.84;5074392;28;20216;-54
2022/11/29 10:04:35;;;;;;;22.67;16.80;;;8.30;87.30;;;10.89;63.10;101751.28;5090879;28;20184;-53
2022/11/29 10:07:20;;;;;;;20.97;16.27;;;8.40;87.40;;;10.92;63.40;101744.91;5079655;28;20242;-55
2022/11/29 10:09:55;;;;;;;20.40;16.17;;;8.30;87.50;;;10.89;63.47;101746.03;5071665;28;20200;-55
2022/11/29 10:12:36;;;;;;;22.23;16.40;;;8.40;87.40;;;10.88;63.07;101749.66;5074790;28;20613;-55
2022/11/29 10:15:12;;;;;;;20.10;16.43;;;8.30;87.30;;;10.95;63.16;101743.78;5062880;28;20236;-56
2022/11/29 10:17:48;;;;;;;20.13;16.13;;;8.40;87.50;;;11.01;63.63;101743.97;5062890;28;20549;-54
2022/11/29 10:20:21;;;;;;;21.40;17.17;;;8.40;87.50;;;10.99;62.98;101742.47;5055617;28;20194;-55
2022/11/29 10:22:56;;;;;;;20.13;16.10;;;8.40;87.30;;;10.98;63.05;101743.47;5056173;28;20610;-55
2022/11/29 10:25:32;;;;;;;21.57;16.83;;;8.40;87.20;;;11.00;63.04;101741.50;5060076;28;20193;-56
2022/11/29 10:28:14;;;;;;;19.37;16.03;;;8.40;87.30;;;10.95;63.66;101743.78;5058969;28;20189;-56
2022/11/29 10:30:42;;;;;;;24.43;18.00;;;8.40;87.10;;;11.01;63.18;101743.16;5054690;28;20193;-56
2022/11/29 10:33:19;;;;;;;23.23;17.57;;;8.40;87.30;;;11.00;63.70;101738.88;5055377;28;20244;-57
2022/11/29 10:35:50;;;;;;;22.77;17.93;;;8.40;87.40;;;11.11;63.64;101738.63;5056687;28;20215;-58
2022/11/29 10:38:17;;;;;;;20.13;15.93;;;8.50;87.80;;;11.26;63.84;101732.66;5055526;28;20186;-56
2022/11/29 10:41:08;;;;;;;20.03;16.63;;;8.50;88.00;;;11.44;62.92;101735.22;5054307;28;20186;-57
2022/11/29 10:43:37;;;;;;;20.63;18.03;;;8.60;88.40;;;11.59;63.07;101736.31;5073730;28;20668;-56
2022/11/29 10:46:13;;;;;;;21.83;17.73;;;8.60;88.30;;;11.66;62.29;101732.06;5095075;28;20668;-58
2022/11/29 10:48:40;;;;;;;21.47;18.30;;;8.80;88.70;;;11.72;62.63;101723.56;5077393;28;20184;-55
2022/11/29 10:51:16;;;;;;;21.97;16.80;;;8.80;87.70;;;11.68;62.03;101727.50;5074695;28;20193;-56
2022/11/29 10:53:45;;;;;;;20.33;17.23;;;8.80;87.20;;;11.70;62.59;101736.06;5074895;28;20638;-59
2022/11/29 10:56:22;;;;;;;23.00;19.03;;;8.90;87.20;;;11.61;62.17;101729.09;5073393;28;20249;-56
2022/11/29 10:59:01;;;;;;;21.23;16.33;;;8.90;86.70;;;11.50;62.53;101732.00;5075125;28;20178;-55
2022/11/29 11:01:34;;;;;;;22.30;18.53;;;8.90;86.60;;;11.43;62.69;101737.03;5073650;28;20215;-55